Blue Grass Airport
KLEX : now visible

Airfield :











YOU CAN JOIN US ON...

 
LOGIN :

Register | Disclaimer

   EN    FR    IT 

 









Legend :    VFR   Marginal VFR   IFR   Intensive IFR   Very Intensive IFR
Visi :
Ceiling :
>= 8 km
>= 3000ft
5 to 8 km
1000 to 3000 ft
1500m to 5 km
500 to 1000 ft
800 to 1500m
200 to 500 ft
< 800m
< 200 ft
Symbols :   Thunderstorms  Fog  Heavy snow  Heavy precipitations  Wind > 20 kt






- Airport Elevation : 979 ft
- IATA code : LEX


KLEX - Blue Grass

CURRENT METAR :
  • 161254Z 04004KT 5SM BR OVC004 04/02 A3002 RMK AO2 SLP169 T00440022

EXPIRED METARs :
  • 161154Z 00000KT 10SM BKN004 OVC012 04/02 A3000 RMK AO2 SLP164 60040 70067 T00440022 10044 20028 53006
  • 161101Z 13005KT 10SM BKN004 BKN017 OVC025 04/02 A2999 RMK AO2 T00390017
  • 161054Z 11005KT 10SM SCT004 BKN017 OVC025 04/02 A2999 RMK AO2 RAE41 SLP159 P0003 T00390017
  • 161012Z 10005KT 2 1/2SM RA SCT004 SCT015 OVC024 04/01 A2998 RMK AO2 P0002 T00390011

TAF KLEX
Valid from the 16 at 12:00 until the 17 at 12:00 UTC


161120Z 1612/1712 VRB05KT P6SM BKN004 OVC011
FM161600 04007KT 4SM -RA BR OVC007
FM161900 05009KT 2SM RA BR OVC006
FM170200 04012KT 5SM -RA BR OVC003
FM170600 35008KT 5SM -RA BR OVC003



MET'MAP, your aeronautical weather chart ! - Copyright ORBIFLY December 2007 - Disclaimer

ORBIFLY MET'MAP TEAM :

Programming & Development : Alexandra Zaïnal
Concept & original design : Baudouin d'Aumeries
Assistance for programming : Marc-Olivier Méhu
Technical & hardware support : Manuel Goepfert

Contact : metmap@orbifly.com




SOURCES & CREDITS :

   NOAA       Earth
Advisory